Amunt
Inicio > meteoXarxa
Fes-te'n soci

METEOXARXA

Castelló de la Plana
Ubicació UJI
Comarca la Plana Alta
Altitud (msnm) 78
Posició geogràfica 40° 0' 1.08" N, 00° 6' 2.52" W
Model Davis Vantage Pro
Presa de dades
Font de les dades Universitat Jaume I de Castelló
Estadístiques. Resum
Data Temperatura (ºC) Humitat (%) Pressió (hPa) Vent (km/h) Precipit. (mm)
Mínima Mitjana Màxima Mínima Mitjana Màxima Mínima Mitjana Màxima Predom. Mitjana Ràfega màxima Total Dies de pluja
Mínima Mitjana Màxima Mínima Mitjana Màxima
Últimes dades diàries
21-01-2017 8,5     10,5     11,9 N 8,2 43,5 4,3  
20-01-2017 6,4     8,6     10,1 N 7,4 40,2 102,4  
19-01-2017 5,3     7,3     9,0 N 6,9 48,3 77,0  
18-01-2017 2,7     6,1     10,0 WNW 3,7 24,1 0,0  
17-01-2017 4,3     9,4     13,7 N 5,6 40,2 0,0  
16-01-2017 8,2     14,1     18,6 NNW 5,3 43,5 0,0  
15-01-2017 3,3     10,2     15,4 W 3,4 40,2 0,0  
14-01-2017 5,7     9,7     13,5 WNW 4,8 40,2 0,0  
13-01-2017 7,6     12,7     16,3 WNW 5,0 30,6 0,0  
12-01-2017 5,3     12,2     17,8 NE 2,9 16,1 0,0  
11-01-2017 6,7     12,1     14,6 N 3,9 43,5 0,0  
10-01-2017 5,3     12,0     16,4 NW 6,1 54,7 0,0  
09-01-2017 4,7     9,3     14,9 ENE 1,4 12,9 0,0  
08-01-2017 3,3     8,3     15,4 WSW 2,7 12,9 0,0  
07-01-2017 4,1     9,1     14,3 WNW 3,1 16,1 0,0  
06-01-2017 3,3     9,2     13,2 SW 2,9 11,3 0,0  
05-01-2017 5,3     10,6     16,2 WSW 3,9 17,7 0,0  
04-01-2017 6,0     10,2     15,4 N 1,3 14,5 0,5  
03-01-2017 4,9     9,7     14,9 ENE 1,3 8,0 0,0  
02-01-2017 4,6     8,5     12,9 SW 1,3 9,7 0,0  
01-01-2017 3,0     8,4     14,2 SW 2,7 9,7 0,0  
31-12-2016 6,0     9,8     15,4 WSW 1,8 11,3 0,0  
30-12-2016 3,6     8,9     14,6 SW 3,1 11,3 0,3  
29-12-2016 2,2     7,8     14,1 WSW 3,9 14,5 0,0  
28-12-2016 4,7     9,7     15,7 W 3,4 11,3 0,0  
27-12-2016 4,7     10,3     16,3 W 1,8 9,7 0,3  
26-12-2016 5,8     10,5     15,9 NNW 1,8 8,0 0,0  
25-12-2016 6,8     11,3     17,1 ESE 1,9 12,9 0,0  
24-12-2016 7,1     12,0     18,7 WSW 4,2 17,7 0,0  
23-12-2016 7,3     12,0     18,2 WSW 3,1 12,9 0,0  
22-12-2016 8,9     13,8     18,9 NE 3,4 27,4 0,0  
21-12-2016 9,6     13,9     18,1 NNW 4,5 27,4 0,0  
Dades del mes en curs (actualitzades fins l'últim dia disponible)
01/2017 2,7 5,2 8,5 9,9 9,0 14,2 18,6   4,0 54,7 184,2  
Últimes dades mensuals
12/2016 2,2 7,9 14,9 11,9 12,0 16,3 18,9 3,2 43,5 116,5 11
11/2016 5,0 9,9 16,1 14,3 13,3 18,6 25,0 3,2 41,8 130,0 12
10/2016 10,7 15,9 19,3 19,7 19,1 23,3 26,2 2,7 25,7 33,0 11
09/2016 14,0 18,5 24,1 23,3 24,6 27,6 33,2 1,3 41,8 69,6 4
08/2016 17,1 21,0 23,9 25,2 24,9 28,8 32,6 1,4 30,6 8,4 2
07/2016 17,3 21,1 23,1 25,5 25,2 28,9 31,6 2,0 32,2 1,8 2
06/2016 12,3 17,9 22,0 22,7 23,3 26,7 32,4 2,6 37,0 2,0 1
05/2016 7,3 13,5 17,9 17,9 17,2 21,7 28,0 3,9 43,5
12/2015 5,7 8,3 12,2 12,6 15,5 17,1 20,2 1,2 19,3 0,0 0
11/2015 3,1 10,3 16,1 15,1 13,5 19,7 23,8 2,5 59,5 12,4 1
10/2015 8,7 14,3 20,2 18,3 18,3 22,1 31,7 2,2 35,4 32,8 12
09/2015 13,7 17,6 21,6 21,8 20,8 25,8 32,1 3,5 41,8 64,9 9
08/2015 16,7 21,2 24,8 25,4 24,8 29,1 35,9 3,9 43,5 51,7 10
Dades de l'any en curs (actualitzades fins l'últim dia disponible)
2017 2,7 5,2 8,5 9,9 9,0 14,2 18,6   4,0 54,7 184,2  
Últimes dades anuals
2015 0,8 13,2 20,4 17,8 20,2 22,1 35,9 4,1 67,6 513,8 48